Etusivu
METAR-TAF:

METAR-TAF

Lentoasemat :

Fort Rucker, Alabama, Yhdysvallat

Leveyspiiri: 31-21-32N, Pituuspiiri: 085-44-54W, korkeus merenpinnasta: 78 m

Tämänhetkinen sää

Tämä raportti tehtiin 10 minuuttia sitten, kello 15.46 UTC
Tuuli 6 kn idästä/koillisesta
Lämpötila 20°C
Kosteus 100%
Ilmanpaine 1005 hPa
Näkyvyys: 2.2 km
Pilvistä 500 ft:n korkeudessa
heikkoa sadetta, utua

METAR: KLOR 191546Z AUTO 07006KT 1 3/8SM -RA BR OVC005 20/20 A2967 RMK AO2 VIS 1 3/8V4 RAB06E23RAB32 CIG 005V007 SLP029

Aika: 10:56 (15:56 UTC)


TAF: puuttuu

Säähavainnot ja -ennusteet yli 4000 lentoasemalta (METAR- ja TAF-raportit).

Käytössä olevat sääasemat on merkitty karttaan keltaisilla ja punaisilla pisteillä.

Aseta hiiri pisteen päälle nähdäksesi sääaseman nimen.

Klikkaa sitten nähdäksesi säähavainnot ja -ennusteet.

Kartan vaihtaminen: klikkaa mustalla rastilla varustettuja vihreitä pisteitä, niin voit zoomata sisään; viivalla varustettua vihreää pistettä, niin voit zoomata ulos tai vihreitä nuolia, niin pääset viereisille kartoille.


METAR-TAF: